Aviation Digital Data Service (ADDS)

Output produced by METARs form (2315 UTC 15 February 2019)
found at http://www.aviationweather.gov/metar/data/
 
METAR text: ETHF 152220Z 31003KT 9999 M01/M01 Q1030 BLU+
Conditions at: ETHF (FRITZLAR (GER-AR, DE) observed 2220 UTC 15 February 2019
Temperature: -1.0°C (30°F)
Dewpoint: -1.0°C (30°F) [RH = 100%]
Pressure (altimeter): 30.41 inches Hg (1030.0 mb)
Winds: from the NW (310 degrees) at 3 MPH (3 knots; 1.5 m/s)
Visibility: 6 or more miles (10+ km)
Ceiling: unknown
Clouds: missing
Weather: no significant weather observed at this time

METAR text: ETHF 152120Z 31004KT 9999 M00/M01 Q1030 BLU+
Conditions at: ETHF (FRITZLAR (GER-AR, DE) observed 2120 UTC 15 February 2019
Temperature: 0.0°C (32°F)
Dewpoint: -1.0°C (30°F) [RH = 93%]
Pressure (altimeter): 30.41 inches Hg (1030.0 mb)
Winds: from the NW (310 degrees) at 5 MPH (4 knots; 2.1 m/s)
Visibility: 6 or more miles (10+ km)
Ceiling: unknown
Clouds: missing
Weather: no significant weather observed at this time

METAR text: ETHF 152020Z 29002KT 9999 00/M01 Q1030 BLU+
Conditions at: ETHF (FRITZLAR (GER-AR, DE) observed 2020 UTC 15 February 2019
Temperature: 0.0°C (32°F)
Dewpoint: -1.0°C (30°F) [RH = 93%]
Pressure (altimeter): 30.41 inches Hg (1030.0 mb)
Winds: from the WNW (290 degrees) at 2 MPH (2 knots; 1.0 m/s)
Visibility: 6 or more miles (10+ km)
Ceiling: unknown
Clouds: missing
Weather: no significant weather observed at this time

METAR text: ETHF 151920Z 31004KT 9999 02/00 Q1031 BLU+
Conditions at: ETHF (FRITZLAR (GER-AR, DE) observed 1920 UTC 15 February 2019
Temperature: 2.0°C (36°F)
Dewpoint: 0.0°C (32°F) [RH = 87%]
Pressure (altimeter): 30.44 inches Hg (1031.0 mb)
Winds: from the NW (310 degrees) at 5 MPH (4 knots; 2.1 m/s)
Visibility: 6 or more miles (10+ km)
Ceiling: unknown
Clouds: missing
Weather: no significant weather observed at this time

METAR text: ETHF 151820Z 26002KT 9999 03/01 Q1031 BLU+
Conditions at: ETHF (FRITZLAR (GER-AR, DE) observed 1820 UTC 15 February 2019
Temperature: 3.0°C (37°F)
Dewpoint: 1.0°C (34°F) [RH = 87%]
Pressure (altimeter): 30.44 inches Hg (1031.0 mb)
Winds: from the W (260 degrees) at 2 MPH (2 knots; 1.0 m/s)
Visibility: 6 or more miles (10+ km)
Ceiling: unknown
Clouds: missing
Weather: no significant weather observed at this time

METAR text: ETHF 151720Z 27002KT 9999 05/02 Q1031 BLU+
Conditions at: ETHF (FRITZLAR (GER-AR, DE) observed 1720 UTC 15 February 2019
Temperature: 5.0°C (41°F)
Dewpoint: 2.0°C (36°F) [RH = 81%]
Pressure (altimeter): 30.44 inches Hg (1031.0 mb)
Winds: from the W (270 degrees) at 2 MPH (2 knots; 1.0 m/s)
Visibility: 6 or more miles (10+ km)
Ceiling: unknown
Clouds: missing
Weather: no significant weather observed at this time

METAR text: ETHF 151620Z VRB01KT 9999 11/03 Q1031 BLU+
Conditions at: ETHF (FRITZLAR (GER-AR, DE) observed 1620 UTC 15 February 2019
Temperature: 11.0°C (52°F)
Dewpoint: 3.0°C (37°F) [RH = 58%]
Pressure (altimeter): 30.44 inches Hg (1031.0 mb)
Winds: variable direction winds at 1 MPH (1 knots; 0.5 m/s)
Visibility: 6 or more miles (10+ km)
Ceiling: unknown
Clouds: missing
Weather: no significant weather observed at this time

METAR text: ETHF 151520Z 13005KT 9999 13/02 Q1031 BLU+
Conditions at: ETHF (FRITZLAR (GER-AR, DE) observed 1520 UTC 15 February 2019
Temperature: 13.0°C (55°F)
Dewpoint: 2.0°C (36°F) [RH = 47%]
Pressure (altimeter): 30.44 inches Hg (1031.0 mb)
Winds: from the SE (130 degrees) at 6 MPH (5 knots; 2.6 m/s)
Visibility: 6 or more miles (10+ km)
Ceiling: unknown
Clouds: missing
Weather: no significant weather observed at this time

METAR text: ETHF 151420Z 13003KT 9999 13/01 Q1032 BLU+
Conditions at: ETHF (FRITZLAR (GER-AR, DE) observed 1420 UTC 15 February 2019
Temperature: 13.0°C (55°F)
Dewpoint: 1.0°C (34°F) [RH = 44%]
Pressure (altimeter): 30.47 inches Hg (1032.0 mb)
Winds: from the SE (130 degrees) at 3 MPH (3 knots; 1.5 m/s)
Visibility: 6 or more miles (10+ km)
Ceiling: unknown
Clouds: missing
Weather: no significant weather observed at this time

METAR text: ETHF 151320Z 15004KT 9999 12/01 Q1032 BLU+
Conditions at: ETHF (FRITZLAR (GER-AR, DE) observed 1320 UTC 15 February 2019
Temperature: 12.0°C (54°F)
Dewpoint: 1.0°C (34°F) [RH = 47%]
Pressure (altimeter): 30.47 inches Hg (1032.0 mb)
Winds: from the SSE (150 degrees) at 5 MPH (4 knots; 2.1 m/s)
Visibility: 6 or more miles (10+ km)
Ceiling: unknown
Clouds: missing
Weather: no significant weather observed at this time

METAR text: ETHF 151220Z 10003KT 9999 09/01 Q1033 BLU+
Conditions at: ETHF (FRITZLAR (GER-AR, DE) observed 1220 UTC 15 February 2019
Temperature: 9.0°C (48°F)
Dewpoint: 1.0°C (34°F) [RH = 57%]
Pressure (altimeter): 30.50 inches Hg (1033.0 mb)
Winds: from the E (100 degrees) at 3 MPH (3 knots; 1.5 m/s)
Visibility: 6 or more miles (10+ km)
Ceiling: unknown
Clouds: missing
Weather: no significant weather observed at this time

METAR text: ETHF 151120Z 11003KT 9999 06/00 Q1034 BLU+
Conditions at: ETHF (FRITZLAR (GER-AR, DE) observed 1120 UTC 15 February 2019
Temperature: 6.0°C (43°F)
Dewpoint: 0.0°C (32°F) [RH = 65%]
Pressure (altimeter): 30.53 inches Hg (1034.0 mb)
Winds: from the ESE (110 degrees) at 3 MPH (3 knots; 1.5 m/s)
Visibility: 6 or more miles (10+ km)
Ceiling: unknown
Clouds: missing
Weather: no significant weather observed at this time

METAR text: ETHF 151020Z VRB02KT 9999 04/M01 Q1035 BLU+
Conditions at: ETHF (FRITZLAR (GER-AR, DE) observed 1020 UTC 15 February 2019
Temperature: 4.0°C (39°F)
Dewpoint: -1.0°C (30°F) [RH = 70%]
Pressure (altimeter): 30.56 inches Hg (1035.0 mb)
Winds: variable direction winds at 2 MPH (2 knots; 1.0 m/s)
Visibility: 6 or more miles (10+ km)
Ceiling: unknown
Clouds: missing
Weather: no significant weather observed at this time

METAR text: ETHF 150920Z VRB02KT 9999 02/M02 Q1035 BLU+
Conditions at: ETHF (FRITZLAR (GER-AR, DE) observed 0920 UTC 15 February 2019
Temperature: 2.0°C (36°F)
Dewpoint: -2.0°C (28°F) [RH = 75%]
Pressure (altimeter): 30.56 inches Hg (1035.0 mb)
Winds: variable direction winds at 2 MPH (2 knots; 1.0 m/s)
Visibility: 6 or more miles (10+ km)
Ceiling: unknown
Clouds: missing
Weather: no significant weather observed at this time

METAR text: ETHF 150820Z VRB01KT 9999 M00/M02 Q1035 BLU+
Conditions at: ETHF (FRITZLAR (GER-AR, DE) observed 0820 UTC 15 February 2019
Temperature: 0.0°C (32°F)
Dewpoint: -2.0°C (28°F) [RH = 86%]
Pressure (altimeter): 30.56 inches Hg (1035.0 mb)
Winds: variable direction winds at 1 MPH (1 knots; 0.5 m/s)
Visibility: 6 or more miles (10+ km)
Ceiling: unknown
Clouds: missing
Weather: no significant weather observed at this time

METAR text: ETHF 150720Z VRB01KT 9999 FEW250 M02/M03 Q1035 BLU+
Conditions at: ETHF (FRITZLAR (GER-AR, DE) observed 0720 UTC 15 February 2019
Temperature: -2.0°C (28°F)
Dewpoint: -3.0°C (27°F) [RH = 93%]
Pressure (altimeter): 30.56 inches Hg (1035.0 mb)
Winds: variable direction winds at 1 MPH (1 knots; 0.5 m/s)
Visibility: 6 or more miles (10+ km)
Ceiling: at least 12,000 feet AGL
Clouds: few clouds at 25000 feet AGL
Weather: no significant weather observed at this time

METAR text: ETHF 150620Z 32001KT 9999 FEW250 M03/M04 Q1035 BLU+
Conditions at: ETHF (FRITZLAR (GER-AR, DE) observed 0620 UTC 15 February 2019
Temperature: -3.0°C (27°F)
Dewpoint: -4.0°C (25°F) [RH = 93%]
Pressure (altimeter): 30.56 inches Hg (1035.0 mb)
Winds: from the NW (320 degrees) at 1 MPH (1 knots; 0.5 m/s)
Visibility: 6 or more miles (10+ km)
Ceiling: at least 12,000 feet AGL
Clouds: few clouds at 25000 feet AGL
Weather: no significant weather observed at this time

METAR text: ETHF 150520Z 29002KT 9999 M03/M04 Q1035 BLU+
Conditions at: ETHF (FRITZLAR (GER-AR, DE) observed 0520 UTC 15 February 2019
Temperature: -3.0°C (27°F)
Dewpoint: -4.0°C (25°F) [RH = 93%]
Pressure (altimeter): 30.56 inches Hg (1035.0 mb)
Winds: from the WNW (290 degrees) at 2 MPH (2 knots; 1.0 m/s)
Visibility: 6 or more miles (10+ km)
Ceiling: unknown
Clouds: missing
Weather: no significant weather observed at this time

METAR text: ETHF 150420Z 30002KT 9999 M02/M03 Q1035 BLU+
Conditions at: ETHF (FRITZLAR (GER-AR, DE) observed 0420 UTC 15 February 2019
Temperature: -2.0°C (28°F)
Dewpoint: -3.0°C (27°F) [RH = 93%]
Pressure (altimeter): 30.56 inches Hg (1035.0 mb)
Winds: from the WNW (300 degrees) at 2 MPH (2 knots; 1.0 m/s)
Visibility: 6 or more miles (10+ km)
Ceiling: unknown
Clouds: missing
Weather: no significant weather observed at this time

METAR text: ETHF 150320Z 29002KT 9999 M02/M03 Q1035 BLU+
Conditions at: ETHF (FRITZLAR (GER-AR, DE) observed 0320 UTC 15 February 2019
Temperature: -2.0°C (28°F)
Dewpoint: -3.0°C (27°F) [RH = 93%]
Pressure (altimeter): 30.56 inches Hg (1035.0 mb)
Winds: from the WNW (290 degrees) at 2 MPH (2 knots; 1.0 m/s)
Visibility: 6 or more miles (10+ km)
Ceiling: unknown
Clouds: missing
Weather: no significant weather observed at this time

METAR text: ETHF 150220Z 29002KT 9999 M02/M03 Q1035 BLU+
Conditions at: ETHF (FRITZLAR (GER-AR, DE) observed 0220 UTC 15 February 2019
Temperature: -2.0°C (28°F)
Dewpoint: -3.0°C (27°F) [RH = 93%]
Pressure (altimeter): 30.56 inches Hg (1035.0 mb)
Winds: from the WNW (290 degrees) at 2 MPH (2 knots; 1.0 m/s)
Visibility: 6 or more miles (10+ km)
Ceiling: unknown
Clouds: missing
Weather: no significant weather observed at this time

METAR text: ETHF 150120Z 27002KT 9999 M02/M03 Q1035 BLU+
Conditions at: ETHF (FRITZLAR (GER-AR, DE) observed 0120 UTC 15 February 2019
Temperature: -2.0°C (28°F)
Dewpoint: -3.0°C (27°F) [RH = 93%]
Pressure (altimeter): 30.56 inches Hg (1035.0 mb)
Winds: from the W (270 degrees) at 2 MPH (2 knots; 1.0 m/s)
Visibility: 6 or more miles (10+ km)
Ceiling: unknown
Clouds: missing
Weather: no significant weather observed at this time

METAR text: ETHF 150020Z 29002KT 9999 M02/M03 Q1036 BLU+
Conditions at: ETHF (FRITZLAR (GER-AR, DE) observed 0020 UTC 15 February 2019
Temperature: -2.0°C (28°F)
Dewpoint: -3.0°C (27°F) [RH = 93%]
Pressure (altimeter): 30.59 inches Hg (1036.0 mb)
Winds: from the WNW (290 degrees) at 2 MPH (2 knots; 1.0 m/s)
Visibility: 6 or more miles (10+ km)
Ceiling: unknown
Clouds: missing
Weather: no significant weather observed at this time

METAR text: ETHF 142320Z 32003KT 9999 M00/M01 Q1036 BLU+
Conditions at: ETHF (FRITZLAR (GER-AR, DE) observed 2320 UTC 14 February 2019
Temperature: 0.0°C (32°F)
Dewpoint: -1.0°C (30°F) [RH = 93%]
Pressure (altimeter): 30.59 inches Hg (1036.0 mb)
Winds: from the NW (320 degrees) at 3 MPH (3 knots; 1.5 m/s)
Visibility: 6 or more miles (10+ km)
Ceiling: unknown
Clouds: missing
Weather: no significant weather observed at this time

METAR text: ETHF 142220Z 30002KT 9999 M01/M02 Q1036 BLU+FCST CANCEL
Conditions at: ETHF (FRITZLAR (GER-AR, DE) observed 2220 UTC 14 February 2019
Temperature: -1.0°C (30°F)
Dewpoint: -2.0°C (28°F) [RH = 93%]
Pressure (altimeter): 30.59 inches Hg (1036.0 mb)
Winds: from the WNW (300 degrees) at 2 MPH (2 knots; 1.0 m/s)
Visibility: 6 or more miles (10+ km)
Ceiling: unknown
Clouds: missing
Weather: no significant weather observed at this time

METAR text: ETHF 142120Z 29003KT 9999 M00/M02 Q1036 BLU+BLU+
Conditions at: ETHF (FRITZLAR (GER-AR, DE) observed 2120 UTC 14 February 2019
Temperature: 0.0°C (32°F)
Dewpoint: -2.0°C (28°F) [RH = 86%]
Pressure (altimeter): 30.59 inches Hg (1036.0 mb)
Winds: from the WNW (290 degrees) at 3 MPH (3 knots; 1.5 m/s)
Visibility: 6 or more miles (10+ km)
Ceiling: unknown
Clouds: missing
Weather: no significant weather observed at this time

METAR text: ETHF 142020Z 29003KT 9999 01/M01 Q1035 BLU+BLU+
Conditions at: ETHF (FRITZLAR (GER-AR, DE) observed 2020 UTC 14 February 2019
Temperature: 1.0°C (34°F)
Dewpoint: -1.0°C (30°F) [RH = 86%]
Pressure (altimeter): 30.56 inches Hg (1035.0 mb)
Winds: from the WNW (290 degrees) at 3 MPH (3 knots; 1.5 m/s)
Visibility: 6 or more miles (10+ km)
Ceiling: unknown
Clouds: missing
Weather: no significant weather observed at this time

METAR text: ETHF 141920Z 31004KT 9999 03/00 Q1035 BLU+BLU+
Conditions at: ETHF (FRITZLAR (GER-AR, DE) observed 1920 UTC 14 February 2019
Temperature: 3.0°C (37°F)
Dewpoint: 0.0°C (32°F) [RH = 81%]
Pressure (altimeter): 30.56 inches Hg (1035.0 mb)
Winds: from the NW (310 degrees) at 5 MPH (4 knots; 2.1 m/s)
Visibility: 6 or more miles (10+ km)
Ceiling: unknown
Clouds: missing
Weather: no significant weather observed at this time

METAR text: ETHF 141820Z 27003KT 9999 02/M00 Q1036 BLU+BLU+
Conditions at: ETHF (FRITZLAR (GER-AR, DE) observed 1820 UTC 14 February 2019
Temperature: 2.0°C (36°F)
Dewpoint: 0.0°C (32°F) [RH = 87%]
Pressure (altimeter): 30.59 inches Hg (1036.0 mb)
Winds: from the W (270 degrees) at 3 MPH (3 knots; 1.5 m/s)
Visibility: 6 or more miles (10+ km)
Ceiling: unknown
Clouds: missing
Weather: no significant weather observed at this time

METAR text: ETHF 141720Z 29002KT 9999 FEW170 04/01 Q1035 BLU+BLU+
Conditions at: ETHF (FRITZLAR (GER-AR, DE) observed 1720 UTC 14 February 2019
Temperature: 4.0°C (39°F)
Dewpoint: 1.0°C (34°F) [RH = 81%]
Pressure (altimeter): 30.56 inches Hg (1035.0 mb)
Winds: from the WNW (290 degrees) at 2 MPH (2 knots; 1.0 m/s)
Visibility: 6 or more miles (10+ km)
Ceiling: at least 12,000 feet AGL
Clouds: few clouds at 17000 feet AGL
Weather: no significant weather observed at this time

METAR text: ETHF 141620Z VRB01KT 9999 FEW170 09/01 Q1035 BLU+BLU+
Conditions at: ETHF (FRITZLAR (GER-AR, DE) observed 1620 UTC 14 February 2019
Temperature: 9.0°C (48°F)
Dewpoint: 1.0°C (34°F) [RH = 57%]
Pressure (altimeter): 30.56 inches Hg (1035.0 mb)
Winds: variable direction winds at 1 MPH (1 knots; 0.5 m/s)
Visibility: 6 or more miles (10+ km)
Ceiling: at least 12,000 feet AGL
Clouds: few clouds at 17000 feet AGL
Weather: no significant weather observed at this time

METAR text: ETHF 141520Z 16003KT 9999 FEW170 10/00 Q1035 BLU+BLU+
Conditions at: ETHF (FRITZLAR (GER-AR, DE) observed 1520 UTC 14 February 2019
Temperature: 10.0°C (50°F)
Dewpoint: 0.0°C (32°F) [RH = 50%]
Pressure (altimeter): 30.56 inches Hg (1035.0 mb)
Winds: from the SSE (160 degrees) at 3 MPH (3 knots; 1.5 m/s)
Visibility: 6 or more miles (10+ km)
Ceiling: at least 12,000 feet AGL
Clouds: few clouds at 17000 feet AGL
Weather: no significant weather observed at this time

METAR text: ETHF 141420Z 16006KT 9999 FEW170 10/01 Q1035 BLU+BLU+
Conditions at: ETHF (FRITZLAR (GER-AR, DE) observed 1420 UTC 14 February 2019
Temperature: 10.0°C (50°F)
Dewpoint: 1.0°C (34°F) [RH = 53%]
Pressure (altimeter): 30.56 inches Hg (1035.0 mb)
Winds: from the SSE (160 degrees) at 7 MPH (6 knots; 3.1 m/s)
Visibility: 6 or more miles (10+ km)
Ceiling: at least 12,000 feet AGL
Clouds: few clouds at 17000 feet AGL
Weather: no significant weather observed at this time

METAR text: ETHF 141320Z 12003KT 9999 FEW150 09/01 Q1035 BLU+BLU+
Conditions at: ETHF (FRITZLAR (GER-AR, DE) observed 1320 UTC 14 February 2019
Temperature: 9.0°C (48°F)
Dewpoint: 1.0°C (34°F) [RH = 57%]
Pressure (altimeter): 30.56 inches Hg (1035.0 mb)
Winds: from the ESE (120 degrees) at 3 MPH (3 knots; 1.5 m/s)
Visibility: 6 or more miles (10+ km)
Ceiling: at least 12,000 feet AGL
Clouds: few clouds at 15000 feet AGL
Weather: no significant weather observed at this time

METAR text: ETHF 141220Z 19003KT 9999 SCT150 07/00 Q1037 BLU+BLU BECMG BLU+
Conditions at: ETHF (FRITZLAR (GER-AR, DE) observed 1220 UTC 14 February 2019
Temperature: 7.0°C (45°F)
Dewpoint: 0.0°C (32°F) [RH = 61%]
Pressure (altimeter): 30.62 inches Hg (1037.0 mb)
Winds: from the S (190 degrees) at 3 MPH (3 knots; 1.5 m/s)
Visibility: 6 or more miles (10+ km)
Ceiling: at least 12,000 feet AGL
Clouds: scattered clouds at 15000 feet AGL
Weather: no significant weather observed at this time

METAR text: ETHF 141120Z 04001KT 9999 SCT160 BKN180 04/00 Q1037 BLU BLU BECMG BLU+
Conditions at: ETHF (FRITZLAR (GER-AR, DE) observed 1120 UTC 14 February 2019
Temperature: 4.0°C (39°F)
Dewpoint: 0.0°C (32°F) [RH = 75%]
Pressure (altimeter): 30.62 inches Hg (1037.0 mb)
Winds: from the NE (40 degrees) at 1 MPH (1 knots; 0.5 m/s)
Visibility: 6 or more miles (10+ km)
Ceiling: 18000 feet AGL
Clouds: scattered clouds at 16000 feet AGL
broken clouds at 18000 feet AGL
Weather: no significant weather observed at this time